sensor_id;sensor_type;location;lat;lon;timestamp;P1;durP1;ratioP1;P2;durP2;ratioP2
18391;SDS011;9322;50.932;5.318;2022-08-19T00:01:22;40.13;;;27.50;;
18391;SDS011;9322;50.932;5.318;2022-08-19T00:03:49;43.03;;;27.30;;
18391;SDS011;9322;50.932;5.318;2022-08-19T00:06:15;45.53;;;28.23;;
18391;SDS011;9322;50.932;5.318;2022-08-19T00:08:41;41.20;;;28.23;;
18391;SDS011;9322;50.932;5.318;2022-08-19T00:11:08;41.90;;;28.70;;
18391;SDS011;9322;50.932;5.318;2022-08-19T00:13:34;48.88;;;29.35;;
18391;SDS011;9322;50.932;5.318;2022-08-19T00:16:00;41.27;;;28.63;;
18391;SDS011;9322;50.932;5.318;2022-08-19T00:18:26;43.07;;;29.07;;
18391;SDS011;9322;50.932;5.318;2022-08-19T00:20:52;45.97;;;29.80;;
18391;SDS011;9322;50.932;5.318;2022-08-19T00:23:18;48.03;;;29.80;;
18391;SDS011;9322;50.932;5.318;2022-08-19T00:25:44;47.00;;;29.60;;
18391;SDS011;9322;50.932;5.318;2022-08-19T00:28:10;43.10;;;29.30;;
18391;SDS011;9322;50.932;5.318;2022-08-19T00:30:35;45.33;;;28.57;;
18391;SDS011;9322;50.932;5.318;2022-08-19T00:33:01;53.00;;;31.17;;
18391;SDS011;9322;50.932;5.318;2022-08-19T00:35:27;43.43;;;29.63;;
18391;SDS011;9322;50.932;5.318;2022-08-19T00:37:54;46.60;;;30.37;;
18391;SDS011;9322;50.932;5.318;2022-08-19T00:40:20;53.63;;;30.67;;
18391;SDS011;9322;50.932;5.318;2022-08-19T00:42:46;50.30;;;32.50;;
18391;SDS011;9322;50.932;5.318;2022-08-19T00:45:16;48.83;;;31.73;;
18391;SDS011;9322;50.932;5.318;2022-08-19T00:47:45;45.53;;;30.73;;
18391;SDS011;9322;50.932;5.318;2022-08-19T00:50:13;49.60;;;31.70;;
18391;SDS011;9322;50.932;5.318;2022-08-19T00:52:43;49.80;;;32.90;;
18391;SDS011;9322;50.932;5.318;2022-08-19T00:55:19;48.30;;;31.33;;
18391;SDS011;9322;50.932;5.318;2022-08-19T00:57:51;48.33;;;31.50;;
18391;SDS011;9322;50.932;5.318;2022-08-19T01:00:20;46.17;;;31.43;;
18391;SDS011;9322;50.932;5.318;2022-08-19T01:02:47;51.93;;;32.43;;
18391;SDS011;9322;50.932;5.318;2022-08-19T01:05:14;54.17;;;33.77;;
18391;SDS011;9322;50.932;5.318;2022-08-19T01:07:46;53.03;;;32.93;;
18391;SDS011;9322;50.932;5.318;2022-08-19T01:10:14;57.33;;;33.60;;
18391;SDS011;9322;50.932;5.318;2022-08-19T01:12:44;49.57;;;32.33;;
18391;SDS011;9322;50.932;5.318;2022-08-19T01:15:11;53.20;;;32.73;;
18391;SDS011;9322;50.932;5.318;2022-08-19T01:17:41;55.40;;;33.67;;
18391;SDS011;9322;50.932;5.318;2022-08-19T01:20:11;52.93;;;33.10;;
18391;SDS011;9322;50.932;5.318;2022-08-19T01:22:47;49.80;;;33.27;;
18391;SDS011;9322;50.932;5.318;2022-08-19T01:25:16;61.00;;;33.33;;
18391;SDS011;9322;50.932;5.318;2022-08-19T01:27:46;49.83;;;31.87;;
18391;SDS011;9322;50.932;5.318;2022-08-19T01:30:15;53.50;;;31.83;;
18391;SDS011;9322;50.932;5.318;2022-08-19T01:32:45;58.43;;;33.87;;
18391;SDS011;9322;50.932;5.318;2022-08-19T01:35:11;59.33;;;35.07;;
18391;SDS011;9322;50.932;5.318;2022-08-19T01:37:48;61.37;;;35.57;;
18391;SDS011;9322;50.932;5.318;2022-08-19T01:40:21;59.27;;;34.33;;
18391;SDS011;9322;50.932;5.318;2022-08-19T01:42:50;65.53;;;36.10;;
18391;SDS011;9322;50.932;5.318;2022-08-19T01:45:17;61.73;;;36.47;;
18391;SDS011;9322;50.932;5.318;2022-08-19T01:47:45;69.87;;;37.00;;
18391;SDS011;9322;50.932;5.318;2022-08-19T01:50:11;62.83;;;36.47;;
18391;SDS011;9322;50.932;5.318;2022-08-19T01:52:39;63.97;;;36.87;;
18391;SDS011;9322;50.932;5.318;2022-08-19T01:55:07;68.67;;;38.83;;
18391;SDS011;9322;50.932;5.318;2022-08-19T01:57:35;71.20;;;39.33;;
18391;SDS011;9322;50.932;5.318;2022-08-19T02:00:03;68.10;;;37.23;;
18391;SDS011;9322;50.932;5.318;2022-08-19T02:02:31;74.77;;;37.50;;
18391;SDS011;9322;50.932;5.318;2022-08-19T02:04:58;72.20;;;37.27;;
18391;SDS011;9322;50.932;5.318;2022-08-19T02:07:24;75.37;;;38.23;;
18391;SDS011;9322;50.932;5.318;2022-08-19T02:09:50;72.27;;;38.77;;
18391;SDS011;9322;50.932;5.318;2022-08-19T02:12:15;73.83;;;37.90;;
18391;SDS011;9322;50.932;5.318;2022-08-19T02:14:42;74.30;;;40.00;;
18391;SDS011;9322;50.932;5.318;2022-08-19T02:17:08;83.40;;;40.03;;
18391;SDS011;9322;50.932;5.318;2022-08-19T02:19:33;73.30;;;38.87;;
18391;SDS011;9322;50.932;5.318;2022-08-19T02:21:59;79.93;;;39.40;;
18391;SDS011;9322;50.932;5.318;2022-08-19T02:24:25;66.70;;;37.73;;
18391;SDS011;9322;50.932;5.318;2022-08-19T02:26:52;73.73;;;38.07;;
18391;SDS011;9322;50.932;5.318;2022-08-19T02:29:18;71.63;;;39.63;;
18391;SDS011;9322;50.932;5.318;2022-08-19T02:31:43;69.67;;;37.73;;
18391;SDS011;9322;50.932;5.318;2022-08-19T02:34:09;73.27;;;38.90;;
18391;SDS011;9322;50.932;5.318;2022-08-19T02:36:35;72.77;;;38.20;;
18391;SDS011;9322;50.932;5.318;2022-08-19T02:39:00;72.17;;;38.70;;
18391;SDS011;9322;50.932;5.318;2022-08-19T02:41:28;79.57;;;38.80;;
18391;SDS011;9322;50.932;5.318;2022-08-19T02:43:56;73.83;;;40.07;;
18391;SDS011;9322;50.932;5.318;2022-08-19T02:46:24;79.57;;;38.93;;
18391;SDS011;9322;50.932;5.318;2022-08-19T02:48:52;75.10;;;38.70;;
18391;SDS011;9322;50.932;5.318;2022-08-19T02:51:29;81.73;;;38.83;;
18391;SDS011;9322;50.932;5.318;2022-08-19T02:53:57;92.80;;;43.53;;
18391;SDS011;9322;50.932;5.318;2022-08-19T02:56:24;94.53;;;43.30;;
18391;SDS011;9322;50.932;5.318;2022-08-19T02:58:52;91.37;;;43.40;;
18391;SDS011;9322;50.932;5.318;2022-08-19T03:01:26;95.27;;;43.33;;
18391;SDS011;9322;50.932;5.318;2022-08-19T03:03:57;102.37;;;45.83;;
18391;SDS011;9322;50.932;5.318;2022-08-19T03:06:24;108.17;;;45.63;;
18391;SDS011;9322;50.932;5.318;2022-08-19T03:08:51;109.93;;;46.30;;
18391;SDS011;9322;50.932;5.318;2022-08-19T03:11:19;118.37;;;47.40;;
18391;SDS011;9322;50.932;5.318;2022-08-19T03:13:49;114.93;;;46.70;;
18391;SDS011;9322;50.932;5.318;2022-08-19T03:16:16;126.90;;;48.57;;
18391;SDS011;9322;50.932;5.318;2022-08-19T03:18:43;118.67;;;46.43;;
18391;SDS011;9322;50.932;5.318;2022-08-19T03:21:09;131.30;;;50.53;;
18391;SDS011;9322;50.932;5.318;2022-08-19T03:23:41;123.73;;;48.93;;
18391;SDS011;9322;50.932;5.318;2022-08-19T03:26:07;135.33;;;48.57;;
18391;SDS011;9322;50.932;5.318;2022-08-19T03:28:33;126.53;;;49.37;;
18391;SDS011;9322;50.932;5.318;2022-08-19T03:31:11;119.53;;;48.27;;
18391;SDS011;9322;50.932;5.318;2022-08-19T03:33:39;133.40;;;49.13;;
18391;SDS011;9322;50.932;5.318;2022-08-19T03:38:34;138.10;;;49.67;;
18391;SDS011;9322;50.932;5.318;2022-08-19T03:41:05;127.80;;;48.97;;
18391;SDS011;9322;50.932;5.318;2022-08-19T03:43:37;123.83;;;49.10;;
18391;SDS011;9322;50.932;5.318;2022-08-19T03:46:05;118.00;;;46.83;;
18391;SDS011;9322;50.932;5.318;2022-08-19T03:48:34;136.97;;;49.70;;
18391;SDS011;9322;50.932;5.318;2022-08-19T03:51:01;133.77;;;47.93;;
18391;SDS011;9322;50.932;5.318;2022-08-19T03:53:28;135.50;;;49.07;;
18391;SDS011;9322;50.932;5.318;2022-08-19T03:55:56;133.73;;;50.00;;
18391;SDS011;9322;50.932;5.318;2022-08-19T03:58:25;130.53;;;49.40;;
18391;SDS011;9322;50.932;5.318;2022-08-19T04:00:53;134.73;;;49.60;;
18391;SDS011;9322;50.932;5.318;2022-08-19T04:03:20;153.70;;;52.93;;
18391;SDS011;9322;50.932;5.318;2022-08-19T04:05:46;155.10;;;51.77;;
18391;SDS011;9322;50.932;5.318;2022-08-19T04:08:12;139.67;;;52.03;;
18391;SDS011;9322;50.932;5.318;2022-08-19T04:10:45;144.13;;;49.93;;
18391;SDS011;9322;50.932;5.318;2022-08-19T04:13:12;142.77;;;51.07;;
18391;SDS011;9322;50.932;5.318;2022-08-19T04:15:43;150.30;;;51.60;;
18391;SDS011;9322;50.932;5.318;2022-08-19T04:18:11;139.60;;;49.67;;
18391;SDS011;9322;50.932;5.318;2022-08-19T04:20:41;161.97;;;53.73;;
18391;SDS011;9322;50.932;5.318;2022-08-19T04:23:08;148.80;;;51.10;;
18391;SDS011;9322;50.932;5.318;2022-08-19T04:25:41;154.77;;;53.53;;
18391;SDS011;9322;50.932;5.318;2022-08-19T04:28:09;145.77;;;50.40;;
18391;SDS011;9322;50.932;5.318;2022-08-19T04:33:09;171.80;;;53.70;;
18391;SDS011;9322;50.932;5.318;2022-08-19T04:35:40;148.40;;;50.43;;
18391;SDS011;9322;50.932;5.318;2022-08-19T04:38:07;142.43;;;50.70;;
18391;SDS011;9322;50.932;5.318;2022-08-19T04:40:34;172.10;;;53.70;;
18391;SDS011;9322;50.932;5.318;2022-08-19T04:43:24;158.80;;;51.80;;
18391;SDS011;9322;50.932;5.318;2022-08-19T04:45:50;166.07;;;51.60;;
18391;SDS011;9322;50.932;5.318;2022-08-19T04:48:16;169.93;;;54.73;;
18391;SDS011;9322;50.932;5.318;2022-08-19T04:50:51;166.30;;;53.13;;
18391;SDS011;9322;50.932;5.318;2022-08-19T04:53:26;160.70;;;51.20;;
18391;SDS011;9322;50.932;5.318;2022-08-19T04:55:54;145.13;;;48.73;;
18391;SDS011;9322;50.932;5.318;2022-08-19T04:58:21;147.70;;;49.93;;
18391;SDS011;9322;50.932;5.318;2022-08-19T05:00:48;161.30;;;51.87;;
18391;SDS011;9322;50.932;5.318;2022-08-19T05:03:14;156.93;;;51.37;;
18391;SDS011;9322;50.932;5.318;2022-08-19T05:05:42;157.37;;;52.70;;
18391;SDS011;9322;50.932;5.318;2022-08-19T05:08:10;160.73;;;50.80;;
18391;SDS011;9322;50.932;5.318;2022-08-19T05:10:37;157.40;;;52.80;;
18391;SDS011;9322;50.932;5.318;2022-08-19T05:13:03;147.90;;;50.10;;
18391;SDS011;9322;50.932;5.318;2022-08-19T05:15:29;152.13;;;51.90;;
18391;SDS011;9322;50.932;5.318;2022-08-19T05:17:55;146.23;;;50.67;;
18391;SDS011;9322;50.932;5.318;2022-08-19T05:20:39;131.07;;;49.77;;
18391;SDS011;9322;50.932;5.318;2022-08-19T05:23:23;139.37;;;50.90;;
18391;SDS011;9322;50.932;5.318;2022-08-19T05:25:49;135.90;;;48.90;;
18391;SDS011;9322;50.932;5.318;2022-08-19T05:28:16;120.67;;;47.63;;
18391;SDS011;9322;50.932;5.318;2022-08-19T05:30:43;110.73;;;46.60;;
18391;SDS011;9322;50.932;5.318;2022-08-19T05:33:10;98.60;;;44.80;;
18391;SDS011;9322;50.932;5.318;2022-08-19T05:35:40;91.17;;;40.73;;
18391;SDS011;9322;50.932;5.318;2022-08-19T05:38:06;87.17;;;41.50;;
18391;SDS011;9322;50.932;5.318;2022-08-19T05:40:36;84.18;;;39.67;;
18391;SDS011;9322;50.932;5.318;2022-08-19T05:43:07;80.03;;;37.58;;
18391;SDS011;9322;50.932;5.318;2022-08-19T05:45:32;73.10;;;37.42;;
18391;SDS011;9322;50.932;5.318;2022-08-19T05:48:03;64.82;;;35.55;;
18391;SDS011;9322;50.932;5.318;2022-08-19T05:50:28;65.88;;;34.25;;
18391;SDS011;9322;50.932;5.318;2022-08-19T05:52:55;67.88;;;35.08;;
18391;SDS011;9322;50.932;5.318;2022-08-19T05:55:20;58.05;;;32.08;;
18391;SDS011;9322;50.932;5.318;2022-08-19T05:57:47;61.90;;;32.35;;
18391;SDS011;9322;50.932;5.318;2022-08-19T06:00:13;55.92;;;30.50;;
18391;SDS011;9322;50.932;5.318;2022-08-19T06:02:39;51.72;;;30.70;;
18391;SDS011;9322;50.932;5.318;2022-08-19T06:05:06;48.13;;;29.38;;
18391;SDS011;9322;50.932;5.318;2022-08-19T06:07:34;46.72;;;27.48;;
18391;SDS011;9322;50.932;5.318;2022-08-19T06:10:00;46.65;;;27.80;;
18391;SDS011;9322;50.932;5.318;2022-08-19T06:12:31;44.60;;;26.48;;
18391;SDS011;9322;50.932;5.318;2022-08-19T06:15:03;44.75;;;27.20;;
18391;SDS011;9322;50.932;5.318;2022-08-19T06:17:31;42.95;;;26.08;;
18391;SDS011;9322;50.932;5.318;2022-08-19T06:19:59;47.72;;;25.75;;
18391;SDS011;9322;50.932;5.318;2022-08-19T06:22:25;40.42;;;25.80;;
18391;SDS011;9322;50.932;5.318;2022-08-19T06:24:52;41.83;;;24.30;;
18391;SDS011;9322;50.932;5.318;2022-08-19T06:27:19;45.85;;;25.55;;
18391;SDS011;9322;50.932;5.318;2022-08-19T06:29:45;37.85;;;23.63;;
18391;SDS011;9322;50.932;5.318;2022-08-19T06:32:11;40.17;;;23.17;;
18391;SDS011;9322;50.932;5.318;2022-08-19T06:34:39;37.10;;;22.85;;
18391;SDS011;9322;50.932;5.318;2022-08-19T06:37:06;38.10;;;21.98;;
18391;SDS011;9322;50.932;5.318;2022-08-19T06:39:33;38.05;;;22.60;;
18391;SDS011;9322;50.932;5.318;2022-08-19T06:42:02;38.55;;;22.08;;
18391;SDS011;9322;50.932;5.318;2022-08-19T06:44:32;38.55;;;22.77;;
18391;SDS011;9322;50.932;5.318;2022-08-19T06:47:00;41.28;;;22.05;;
18391;SDS011;9322;50.932;5.318;2022-08-19T06:49:28;32.88;;;20.42;;
18391;SDS011;9322;50.932;5.318;2022-08-19T06:51:55;41.40;;;21.77;;
18391;SDS011;9322;50.932;5.318;2022-08-19T06:54:22;31.92;;;19.42;;
18391;SDS011;9322;50.932;5.318;2022-08-19T06:56:48;32.60;;;20.27;;
18391;SDS011;9322;50.932;5.318;2022-08-19T06:59:15;32.42;;;18.40;;
18391;SDS011;9322;50.932;5.318;2022-08-19T07:01:49;27.88;;;17.80;;
18391;SDS011;9322;50.932;5.318;2022-08-19T07:04:17;29.20;;;17.13;;
18391;SDS011;9322;50.932;5.318;2022-08-19T07:06:44;27.98;;;17.17;;
18391;SDS011;9322;50.932;5.318;2022-08-19T07:09:12;29.65;;;17.20;;
18391;SDS011;9322;50.932;5.318;2022-08-19T07:11:46;35.67;;;18.17;;
18391;SDS011;9322;50.932;5.318;2022-08-19T07:14:14;29.48;;;17.15;;
18391;SDS011;9322;50.932;5.318;2022-08-19T07:16:43;35.58;;;17.38;;
18391;SDS011;9322;50.932;5.318;2022-08-19T07:19:11;25.85;;;16.67;;
18391;SDS011;9322;50.932;5.318;2022-08-19T07:21:37;32.03;;;17.40;;
18391;SDS011;9322;50.932;5.318;2022-08-19T07:24:03;30.00;;;16.05;;
18391;SDS011;9322;50.932;5.318;2022-08-19T07:26:30;29.13;;;15.88;;
18391;SDS011;9322;50.932;5.318;2022-08-19T07:28:58;27.77;;;16.00;;
18391;SDS011;9322;50.932;5.318;2022-08-19T07:31:25;26.42;;;15.15;;
18391;SDS011;9322;50.932;5.318;2022-08-19T07:33:53;25.33;;;14.63;;
18391;SDS011;9322;50.932;5.318;2022-08-19T07:36:22;24.05;;;14.73;;
18391;SDS011;9322;50.932;5.318;2022-08-19T07:38:50;29.00;;;14.55;;
18391;SDS011;9322;50.932;5.318;2022-08-19T07:41:18;26.85;;;14.95;;
18391;SDS011;9322;50.932;5.318;2022-08-19T07:43:48;22.17;;;13.52;;
18391;SDS011;9322;50.932;5.318;2022-08-19T07:46:14;27.27;;;14.43;;
18391;SDS011;9322;50.932;5.318;2022-08-19T07:48:42;26.13;;;14.48;;
18391;SDS011;9322;50.932;5.318;2022-08-19T07:51:14;24.95;;;14.52;;
18391;SDS011;9322;50.932;5.318;2022-08-19T07:53:41;29.67;;;15.30;;
18391;SDS011;9322;50.932;5.318;2022-08-19T07:56:09;24.52;;;14.45;;
18391;SDS011;9322;50.932;5.318;2022-08-19T07:58:37;33.85;;;16.23;;
18391;SDS011;9322;50.932;5.318;2022-08-19T08:01:05;28.08;;;15.48;;
18391;SDS011;9322;50.932;5.318;2022-08-19T08:03:32;25.50;;;13.60;;
18391;SDS011;9322;50.932;5.318;2022-08-19T08:06:17;25.65;;;14.07;;
18391;SDS011;9322;50.932;5.318;2022-08-19T08:09:03;30.05;;;14.50;;
18391;SDS011;9322;50.932;5.318;2022-08-19T08:11:39;25.58;;;14.23;;
18391;SDS011;9322;50.932;5.318;2022-08-19T08:14:07;23.05;;;12.32;;
18391;SDS011;9322;50.932;5.318;2022-08-19T08:16:37;24.88;;;13.50;;
18391;SDS011;9322;50.932;5.318;2022-08-19T08:19:04;26.67;;;12.60;;
18391;SDS011;9322;50.932;5.318;2022-08-19T08:21:31;22.92;;;11.63;;
18391;SDS011;9322;50.932;5.318;2022-08-19T08:23:57;20.75;;;11.45;;
18391;SDS011;9322;50.932;5.318;2022-08-19T08:26:23;27.73;;;13.05;;
18391;SDS011;9322;50.932;5.318;2022-08-19T08:28:50;21.85;;;12.85;;
18391;SDS011;9322;50.932;5.318;2022-08-19T08:31:17;25.02;;;12.93;;
18391;SDS011;9322;50.932;5.318;2022-08-19T08:33:44;23.10;;;12.40;;
18391;SDS011;9322;50.932;5.318;2022-08-19T08:36:10;21.30;;;12.13;;
18391;SDS011;9322;50.932;5.318;2022-08-19T08:38:39;20.63;;;11.40;;
18391;SDS011;9322;50.932;5.318;2022-08-19T08:44:58;20.23;;;9.85;;
18391;SDS011;9322;50.932;5.318;2022-08-19T08:47:12;20.35;;;10.30;;
18391;SDS011;9322;50.932;5.318;2022-08-19T08:55:03;22.15;;;10.50;;
18391;SDS011;9322;50.932;5.318;2022-08-19T08:57:40;16.25;;;9.27;;
18391;SDS011;9322;50.932;5.318;2022-08-19T09:00:14;15.77;;;8.43;;
18391;SDS011;9322;50.932;5.318;2022-08-19T09:02:43;16.77;;;9.20;;
18391;SDS011;9322;50.932;5.318;2022-08-19T09:05:09;14.40;;;9.18;;
18391;SDS011;9322;50.932;5.318;2022-08-19T09:15:34;13.98;;;8.73;;
18391;SDS011;9322;50.932;5.318;2022-08-19T09:18:04;15.00;;;8.88;;
18391;SDS011;9322;50.932;5.318;2022-08-19T09:20:31;14.00;;;7.43;;
18391;SDS011;9322;50.932;5.318;2022-08-19T09:22:57;11.65;;;8.25;;
18391;SDS011;9322;50.932;5.318;2022-08-19T09:25:23;20.08;;;9.68;;
18391;SDS011;9322;50.932;5.318;2022-08-19T09:27:49;12.15;;;8.73;;
18391;SDS011;9322;50.932;5.318;2022-08-19T09:30:27;15.35;;;9.02;;
18391;SDS011;9322;50.932;5.318;2022-08-19T09:32:55;16.15;;;6.97;;
18391;SDS011;9322;50.932;5.318;2022-08-19T09:35:22;11.82;;;6.10;;
18391;SDS011;9322;50.932;5.318;2022-08-19T09:37:50;10.82;;;7.45;;
18391;SDS011;9322;50.932;5.318;2022-08-19T09:40:16;13.00;;;7.03;;
18391;SDS011;9322;50.932;5.318;2022-08-19T09:42:43;9.30;;;5.68;;
18391;SDS011;9322;50.932;5.318;2022-08-19T09:45:09;10.27;;;5.82;;
18391;SDS011;9322;50.932;5.318;2022-08-19T09:47:35;9.70;;;5.35;;
18391;SDS011;9322;50.932;5.318;2022-08-19T09:50:06;8.52;;;5.00;;
18391;SDS011;9322;50.932;5.318;2022-08-19T09:52:34;10.35;;;5.03;;
18391;SDS011;9322;50.932;5.318;2022-08-19T09:55:02;8.35;;;4.65;;
18391;SDS011;9322;50.932;5.318;2022-08-19T09:57:29;7.28;;;4.20;;
18391;SDS011;9322;50.932;5.318;2022-08-19T09:59:55;8.55;;;4.82;;
18391;SDS011;9322;50.932;5.318;2022-08-19T10:02:20;5.93;;;3.50;;
18391;SDS011;9322;50.932;5.318;2022-08-19T10:04:46;8.02;;;4.40;;
18391;SDS011;9322;50.932;5.318;2022-08-19T10:07:30;5.45;;;3.75;;
18391;SDS011;9322;50.932;5.318;2022-08-19T10:09:56;12.40;;;4.18;;
18391;SDS011;9322;50.932;5.318;2022-08-19T10:12:22;6.40;;;3.72;;
18391;SDS011;9322;50.932;5.318;2022-08-19T10:14:48;8.80;;;3.70;;
18391;SDS011;9322;50.932;5.318;2022-08-19T10:17:16;9.32;;;4.05;;
18391;SDS011;9322;50.932;5.318;2022-08-19T10:19:42;7.82;;;4.93;;
18391;SDS011;9322;50.932;5.318;2022-08-19T10:22:08;6.72;;;4.18;;
18391;SDS011;9322;50.932;5.318;2022-08-19T10:24:39;6.93;;;4.47;;
18391;SDS011;9322;50.932;5.318;2022-08-19T10:27:06;6.38;;;3.85;;
18391;SDS011;9322;50.932;5.318;2022-08-19T10:29:32;10.38;;;4.97;;
18391;SDS011;9322;50.932;5.318;2022-08-19T10:32:02;8.68;;;4.60;;
18391;SDS011;9322;50.932;5.318;2022-08-19T10:34:30;6.78;;;4.38;;
18391;SDS011;9322;50.932;5.318;2022-08-19T10:36:57;9.90;;;4.20;;
18391;SDS011;9322;50.932;5.318;2022-08-19T10:39:24;8.13;;;4.20;;
18391;SDS011;9322;50.932;5.318;2022-08-19T10:41:50;7.95;;;4.15;;
18391;SDS011;9322;50.932;5.318;2022-08-19T10:44:15;6.82;;;3.92;;
18391;SDS011;9322;50.932;5.318;2022-08-19T10:46:43;9.80;;;4.30;;
18391;SDS011;9322;50.932;5.318;2022-08-19T10:49:10;6.45;;;4.15;;
18391;SDS011;9322;50.932;5.318;2022-08-19T10:51:37;7.68;;;4.43;;
18391;SDS011;9322;50.932;5.318;2022-08-19T10:54:22;7.70;;;4.18;;
18391;SDS011;9322;50.932;5.318;2022-08-19T10:56:47;6.07;;;4.20;;
18391;SDS011;9322;50.932;5.318;2022-08-19T10:59:16;10.15;;;4.28;;
18391;SDS011;9322;50.932;5.318;2022-08-19T11:01:47;8.82;;;4.05;;
18391;SDS011;9322;50.932;5.318;2022-08-19T11:04:14;8.50;;;4.20;;
18391;SDS011;9322;50.932;5.318;2022-08-19T11:06:42;6.78;;;3.88;;
18391;SDS011;9322;50.932;5.318;2022-08-19T11:09:19;7.30;;;4.07;;
18391;SDS011;9322;50.932;5.318;2022-08-19T11:11:49;7.22;;;3.90;;
18391;SDS011;9322;50.932;5.318;2022-08-19T11:14:15;9.07;;;3.97;;
18391;SDS011;9322;50.932;5.318;2022-08-19T11:16:46;10.75;;;4.57;;
18391;SDS011;9322;50.932;5.318;2022-08-19T11:19:13;6.93;;;3.72;;
18391;SDS011;9322;50.932;5.318;2022-08-19T11:21:43;7.50;;;3.80;;
18391;SDS011;9322;50.932;5.318;2022-08-19T11:24:11;7.63;;;4.07;;
18391;SDS011;9322;50.932;5.318;2022-08-19T11:26:41;7.30;;;4.15;;
18391;SDS011;9322;50.932;5.318;2022-08-19T11:29:09;7.78;;;4.10;;
18391;SDS011;9322;50.932;5.318;2022-08-19T11:31:36;7.68;;;4.30;;
18391;SDS011;9322;50.932;5.318;2022-08-19T11:34:05;7.50;;;4.18;;
18391;SDS011;9322;50.932;5.318;2022-08-19T11:36:32;7.63;;;4.80;;
18391;SDS011;9322;50.932;5.318;2022-08-19T11:38:59;7.60;;;4.65;;
18391;SDS011;9322;50.932;5.318;2022-08-19T11:41:25;9.75;;;4.30;;
18391;SDS011;9322;50.932;5.318;2022-08-19T11:43:52;10.68;;;4.88;;
18391;SDS011;9322;50.932;5.318;2022-08-19T11:46:20;5.75;;;4.13;;
18391;SDS011;9322;50.932;5.318;2022-08-19T11:48:48;7.68;;;4.18;;
18391;SDS011;9322;50.932;5.318;2022-08-19T11:51:17;5.20;;;3.63;;
18391;SDS011;9322;50.932;5.318;2022-08-19T11:53:44;8.23;;;3.58;;
18391;SDS011;9322;50.932;5.318;2022-08-19T11:56:11;7.93;;;4.18;;
18391;SDS011;9322;50.932;5.318;2022-08-19T11:58:37;14.13;;;4.22;;
18391;SDS011;9322;50.932;5.318;2022-08-19T12:01:07;7.60;;;3.50;;
18391;SDS011;9322;50.932;5.318;2022-08-19T12:03:34;7.63;;;4.10;;
18391;SDS011;9322;50.932;5.318;2022-08-19T12:06:08;6.75;;;3.53;;
18391;SDS011;9322;50.932;5.318;2022-08-19T12:08:37;7.10;;;3.63;;
18391;SDS011;9322;50.932;5.318;2022-08-19T12:11:03;5.72;;;3.53;;
18391;SDS011;9322;50.932;5.318;2022-08-19T12:13:30;5.50;;;3.50;;
18391;SDS011;9322;50.932;5.318;2022-08-19T12:15:56;7.05;;;3.90;;
18391;SDS011;9322;50.932;5.318;2022-08-19T12:18:23;7.05;;;3.60;;
18391;SDS011;9322;50.932;5.318;2022-08-19T12:20:50;8.18;;;4.28;;
18391;SDS011;9322;50.932;5.318;2022-08-19T12:23:17;6.72;;;4.22;;
18391;SDS011;9322;50.932;5.318;2022-08-19T12:25:44;8.10;;;4.15;;
18391;SDS011;9322;50.932;5.318;2022-08-19T12:28:20;9.10;;;4.28;;
18391;SDS011;9322;50.932;5.318;2022-08-19T12:30:48;12.38;;;4.68;;
18391;SDS011;9322;50.932;5.318;2022-08-19T12:33:15;8.40;;;3.92;;
18391;SDS011;9322;50.932;5.318;2022-08-19T12:35:42;7.32;;;4.13;;
18391;SDS011;9322;50.932;5.318;2022-08-19T12:38:10;10.48;;;3.80;;
18391;SDS011;9322;50.932;5.318;2022-08-19T12:40:36;5.32;;;3.78;;
18391;SDS011;9322;50.932;5.318;2022-08-19T12:43:02;5.03;;;3.30;;
18391;SDS011;9322;50.932;5.318;2022-08-19T12:45:29;6.03;;;3.20;;
18391;SDS011;9322;50.932;5.318;2022-08-19T12:47:54;5.18;;;3.30;;
18391;SDS011;9322;50.932;5.318;2022-08-19T12:50:20;4.55;;;3.40;;
18391;SDS011;9322;50.932;5.318;2022-08-19T12:52:46;9.80;;;3.42;;
18391;SDS011;9322;50.932;5.318;2022-08-19T12:55:13;6.78;;;2.97;;
18391;SDS011;9322;50.932;5.318;2022-08-19T12:57:39;6.07;;;3.47;;
18391;SDS011;9322;50.932;5.318;2022-08-19T13:02:35;8.32;;;2.90;;
18391;SDS011;9322;50.932;5.318;2022-08-19T13:05:02;6.90;;;3.65;;
18391;SDS011;9322;50.932;5.318;2022-08-19T13:07:28;5.40;;;3.45;;
18391;SDS011;9322;50.932;5.318;2022-08-19T13:09:56;6.65;;;3.40;;
18391;SDS011;9322;50.932;5.318;2022-08-19T13:12:21;7.80;;;3.20;;
18391;SDS011;9322;50.932;5.318;2022-08-19T13:14:51;4.90;;;3.13;;
18391;SDS011;9322;50.932;5.318;2022-08-19T13:17:20;5.40;;;3.40;;
18391;SDS011;9322;50.932;5.318;2022-08-19T13:19:45;4.85;;;2.92;;
18391;SDS011;9322;50.932;5.318;2022-08-19T13:22:11;5.30;;;3.10;;
18391;SDS011;9322;50.932;5.318;2022-08-19T13:24:37;7.32;;;2.80;;
18391;SDS011;9322;50.932;5.318;2022-08-19T13:27:03;6.13;;;2.92;;
18391;SDS011;9322;50.932;5.318;2022-08-19T13:29:29;3.63;;;2.33;;
18391;SDS011;9322;50.932;5.318;2022-08-19T13:32:13;6.60;;;2.42;;
18391;SDS011;9322;50.932;5.318;2022-08-19T13:34:57;12.35;;;2.30;;
18391;SDS011;9322;50.932;5.318;2022-08-19T13:37:23;4.88;;;2.20;;
18391;SDS011;9322;50.932;5.318;2022-08-19T13:40:07;4.80;;;2.72;;
18391;SDS011;9322;50.932;5.318;2022-08-19T13:42:41;3.85;;;2.25;;
18391;SDS011;9322;50.932;5.318;2022-08-19T13:45:09;3.67;;;1.95;;
18391;SDS011;9322;50.932;5.318;2022-08-19T13:47:35;4.50;;;2.28;;
18391;SDS011;9322;50.932;5.318;2022-08-19T13:50:08;5.07;;;2.70;;
18391;SDS011;9322;50.932;5.318;2022-08-19T13:52:36;3.33;;;2.63;;
18391;SDS011;9322;50.932;5.318;2022-08-19T13:55:02;4.15;;;2.50;;
18391;SDS011;9322;50.932;5.318;2022-08-19T13:57:29;2.67;;;1.98;;
18391;SDS011;9322;50.932;5.318;2022-08-19T13:59:56;8.25;;;2.50;;
18391;SDS011;9322;50.932;5.318;2022-08-19T14:02:23;4.68;;;2.50;;
18391;SDS011;9322;50.932;5.318;2022-08-19T14:04:49;3.95;;;2.60;;
18391;SDS011;9322;50.932;5.318;2022-08-19T14:07:14;3.25;;;2.40;;
18391;SDS011;9322;50.932;5.318;2022-08-19T14:09:40;4.55;;;2.60;;
18391;SDS011;9322;50.932;5.318;2022-08-19T14:12:06;5.03;;;2.88;;
18391;SDS011;9322;50.932;5.318;2022-08-19T14:14:35;4.65;;;3.20;;
18391;SDS011;9322;50.932;5.318;2022-08-19T14:17:05;6.93;;;3.05;;
18391;SDS011;9322;50.932;5.318;2022-08-19T14:19:31;4.28;;;2.65;;
18391;SDS011;9322;50.932;5.318;2022-08-19T14:21:57;7.63;;;3.25;;
18391;SDS011;9322;50.932;5.318;2022-08-19T14:24:23;3.45;;;2.58;;
18391;SDS011;9322;50.932;5.318;2022-08-19T14:26:49;3.90;;;3.15;;
18391;SDS011;9322;50.932;5.318;2022-08-19T14:29:15;4.35;;;2.80;;
18391;SDS011;9322;50.932;5.318;2022-08-19T14:31:41;4.10;;;2.88;;
18391;SDS011;9322;50.932;5.318;2022-08-19T14:34:08;10.85;;;3.55;;
18391;SDS011;9322;50.932;5.318;2022-08-19T14:36:35;8.75;;;3.75;;
18391;SDS011;9322;50.932;5.318;2022-08-19T14:39:02;3.63;;;2.50;;
18391;SDS011;9322;50.932;5.318;2022-08-19T14:41:28;3.17;;;2.28;;
18391;SDS011;9322;50.932;5.318;2022-08-19T14:43:55;6.15;;;2.35;;
18391;SDS011;9322;50.932;5.318;2022-08-19T14:46:22;3.78;;;2.45;;
18391;SDS011;9322;50.932;5.318;2022-08-19T14:48:50;11.48;;;2.63;;
18391;SDS011;9322;50.932;5.318;2022-08-19T14:51:16;4.38;;;2.40;;
18391;SDS011;9322;50.932;5.318;2022-08-19T14:53:43;7.72;;;3.35;;
18391;SDS011;9322;50.932;5.318;2022-08-19T14:56:09;8.45;;;2.95;;
18391;SDS011;9322;50.932;5.318;2022-08-19T14:58:39;6.13;;;3.17;;
18391;SDS011;9322;50.932;5.318;2022-08-19T15:01:06;4.13;;;2.65;;
18391;SDS011;9322;50.932;5.318;2022-08-19T15:03:33;5.85;;;3.45;;
18391;SDS011;9322;50.932;5.318;2022-08-19T15:05:59;4.32;;;3.17;;
18391;SDS011;9322;50.932;5.318;2022-08-19T15:08:26;3.95;;;3.08;;
18391;SDS011;9322;50.932;5.318;2022-08-19T15:10:53;3.22;;;2.53;;
18391;SDS011;9322;50.932;5.318;2022-08-19T15:13:19;4.18;;;2.92;;